Time,TemperatureF,DewpointF,PressureIn,WindDirection,WindDirectionDegrees,WindSpeedMPH,WindSpeedGustMPH,Humidity,HourlyPrecipIn,Conditions,Clouds,dailyrainin,SoftwareType,DateUTC
2013-05-22 00:07:00,69.8,67.7,29.79,ESE,112,2.0,-999.0,93,-99.99,,,0.00,Acu-Link.com,2013-05-22 04:07:00,
2013-05-22 00:22:00,69.8,67.7,29.80,NW,315,1.6,-999.0,93,-99.99,,,0.00,Acu-Link.com,2013-05-22 04:22:00,
2013-05-22 00:37:00,69.8,67.7,29.80,NNE,22,0.0,-999.0,93,-99.99,,,0.00,Acu-Link.com,2013-05-22 04:37:00,
2013-05-22 00:53:00,69.8,67.4,29.80,SE,135,2.7,-999.0,92,-99.99,,,0.00,Acu-Link.com,2013-05-22 04:53:00,
2013-05-22 01:08:00,69.8,67.4,29.79,North,0,0.0,-999.0,92,-99.99,,,0.00,Acu-Link.com,2013-05-22 05:08:00,
2013-05-22 01:23:00,69.8,67.4,29.79,North,0,2.7,-999.0,92,-99.99,,,0.00,Acu-Link.com,2013-05-22 05:23:00,
2013-05-22 01:38:00,69.8,67.7,29.78,SE,135,2.0,-999.0,93,-99.99,,,0.00,Acu-Link.com,2013-05-22 05:38:00,
2013-05-22 01:53:00,69.8,67.7,29.78,East,90,1.6,-999.0,93,-99.99,,,0.00,Acu-Link.com,2013-05-22 05:53:00,
2013-05-22 02:08:00,69.8,68.0,29.77,ESE,112,2.0,-999.0,94,-99.99,,,0.00,Acu-Link.com,2013-05-22 06:08:00,
2013-05-22 02:23:00,68.0,66.5,29.77,East,90,1.6,-999.0,95,-99.99,,,0.00,Acu-Link.com,2013-05-22 06:23:00,
2013-05-22 02:39:00,68.0,66.5,29.77,ESE,112,2.0,-999.0,95,-99.99,,,0.00,Acu-Link.com,2013-05-22 06:39:00,
2013-05-22 02:54:00,68.0,66.5,29.77,ESE,112,2.7,-999.0,95,-99.99,,,0.00,Acu-Link.com,2013-05-22 06:54:00,
2013-05-22 03:09:00,68.0,66.8,29.77,SE,135,2.7,-999.0,96,-99.99,,,0.00,Acu-Link.com,2013-05-22 07:09:00,
2013-05-22 03:24:00,68.0,66.8,29.75,East,90,3.1,-999.0,96,-99.99,,,0.00,Acu-Link.com,2013-05-22 07:24:00,
2013-05-22 03:40:00,68.0,66.8,29.75,South,180,2.0,-999.0,96,-99.99,,,0.00,Acu-Link.com,2013-05-22 07:40:00,
2013-05-22 03:55:00,68.0,66.8,29.75,ESE,112,2.0,-999.0,96,-99.99,,,0.00,Acu-Link.com,2013-05-22 07:55:00,
2013-05-22 04:12:00,68.0,66.8,29.75,SSE,157,2.7,-999.0,96,-99.99,,,0.00,Acu-Link.com,2013-05-22 08:12:00,
2013-05-22 04:27:00,68.0,66.8,29.75,ENE,67,3.6,-999.0,96,-99.99,,,0.00,Acu-Link.com,2013-05-22 08:27:00,
2013-05-22 04:43:00,68.0,66.8,29.74,SSE,157,2.0,-999.0,96,-99.99,,,0.00,Acu-Link.com,2013-05-22 08:43:00,
2013-05-22 04:58:00,68.0,66.8,29.74,SSE,157,2.7,-999.0,96,-99.99,,,0.00,Acu-Link.com,2013-05-22 08:58:00,
2013-05-22 05:13:00,68.0,66.8,29.74,ESE,112,3.6,-999.0,96,-99.99,,,0.00,Acu-Link.com,2013-05-22 09:13:00,
2013-05-22 05:28:00,68.0,66.8,29.74,ESE,112,0.0,-999.0,96,-99.99,,,0.00,Acu-Link.com,2013-05-22 09:28:00,
2013-05-22 05:43:00,68.0,66.8,29.75,SSE,157,2.7,-999.0,96,-99.99,,,0.00,Acu-Link.com,2013-05-22 09:43:00,
2013-05-22 05:58:00,68.0,66.8,29.75,ESE,112,1.6,-999.0,96,-99.99,,,0.00,Acu-Link.com,2013-05-22 09:58:00,
2013-05-22 06:13:00,68.0,66.8,29.75,SW,225,1.6,-999.0,96,-99.99,,,0.00,Acu-Link.com,2013-05-22 10:13:00,
2013-05-22 06:28:00,68.0,66.8,29.76,SSE,157,2.0,-999.0,96,-99.99,,,0.00,Acu-Link.com,2013-05-22 10:28:00,
2013-05-22 06:44:00,68.0,66.8,29.76,ENE,67,2.7,-999.0,96,-99.99,,,0.00,Acu-Link.com,2013-05-22 10:44:00,
2013-05-22 06:59:00,68.0,66.8,29.77,SE,135,1.6,-999.0,96,-99.99,,,0.00,Acu-Link.com,2013-05-22 10:59:00,
2013-05-22 07:14:00,68.0,66.5,29.77,SW,225,2.0,-999.0,95,-99.99,,,0.00,Acu-Link.com,2013-05-22 11:14:00,
2013-05-22 07:29:00,69.8,67.7,29.77,ESE,112,3.6,-999.0,93,-99.99,,,0.00,Acu-Link.com,2013-05-22 11:29:00,
2013-05-22 07:44:00,69.8,67.4,29.78,ESE,112,2.7,-999.0,92,-99.99,,,0.00,Acu-Link.com,2013-05-22 11:44:00,
2013-05-22 08:00:00,69.8,67.0,29.78,SSW,202,3.6,-999.0,91,-99.99,,,0.00,Acu-Link.com,2013-05-22 12:00:00,
2013-05-22 08:15:00,71.6,68.5,29.79,NW,315,1.6,-999.0,90,-99.99,,,0.00,Acu-Link.com,2013-05-22 12:15:00,
2013-05-22 08:30:00,71.6,67.9,29.79,SSW,202,2.7,-999.0,88,-99.99,,,0.00,Acu-Link.com,2013-05-22 12:30:00,
2013-05-22 08:45:00,71.6,67.9,29.80,SSW,202,2.7,-999.0,88,-99.99,,,0.00,Acu-Link.com,2013-05-22 12:45:00,
2013-05-22 09:00:00,71.6,67.9,29.80,SSW,202,2.7,-999.0,88,-99.99,,,0.00,Acu-Link.com,2013-05-22 13:00:00,
2013-05-22 09:16:00,71.6,67.9,29.80,SSW,202,2.7,-999.0,88,-99.99,,,0.00,Acu-Link.com,2013-05-22 13:16:00,
2013-05-22 12:17:00,87.8,69.6,29.78,SE,135,5.1,-999.0,55,-99.99,,,0.00,Acu-Link.com,2013-05-22 16:17:00,
2013-05-22 12:32:00,87.8,68.5,29.77,SSE,157,4.0,-999.0,53,-99.99,,,0.00,Acu-Link.com,2013-05-22 16:32:00,
2013-05-22 12:47:00,89.6,69.0,29.77,South,180,4.7,-999.0,51,-99.99,,,0.00,Acu-Link.com,2013-05-22 16:47:00,
2013-05-22 13:02:00,86.0,69.0,29.77,SSW,202,5.1,-999.0,57,-99.99,,,0.00,Acu-Link.com,2013-05-22 17:02:00,
2013-05-22 13:18:00,86.0,69.0,29.76,SSW,202,5.1,-999.0,57,-99.99,,,0.00,Acu-Link.com,2013-05-22 17:18:00,
2013-05-22 13:33:00,87.8,70.1,29.76,SSW,202,4.0,-999.0,56,-99.99,,,0.00,Acu-Link.com,2013-05-22 17:33:00,
2013-05-22 13:48:00,86.0,69.5,29.75,SSW,202,6.7,-999.0,58,-99.99,,,0.00,Acu-Link.com,2013-05-22 17:48:00,
2013-05-22 14:03:00,89.6,69.0,29.75,South,180,4.7,-999.0,51,-99.99,,,0.00,Acu-Link.com,2013-05-22 18:03:00,
2013-05-22 14:19:00,89.6,67.9,29.74,South,180,7.8,-999.0,49,-99.99,,,0.00,Acu-Link.com,2013-05-22 18:19:00,
2013-05-22 14:34:00,87.8,66.2,29.74,South,180,4.7,-999.0,49,-99.99,,,0.00,Acu-Link.com,2013-05-22 18:34:00,
2013-05-22 14:49:00,89.6,67.9,29.74,NE,45,4.0,-999.0,49,-99.99,,,0.00,Acu-Link.com,2013-05-22 18:49:00,
2013-05-22 15:04:00,89.6,68.5,29.73,SSE,157,2.7,-999.0,50,-99.99,,,0.00,Acu-Link.com,2013-05-22 19:04:00,
2013-05-22 15:19:00,89.6,68.5,29.73,SSE,157,2.7,-999.0,50,-99.99,,,0.00,Acu-Link.com,2013-05-22 19:19:00,
2013-05-22 15:35:00,89.6,66.7,29.72,SSW,202,4.0,-999.0,47,-99.99,,,0.00,Acu-Link.com,2013-05-22 19:35:00,
2013-05-22 15:50:00,89.6,67.3,29.71,ESE,112,3.6,-999.0,48,-99.99,,,0.00,Acu-Link.com,2013-05-22 19:50:00,
2013-05-22 16:05:00,89.6,68.5,29.70,SSE,157,4.0,-999.0,50,-99.99,,,0.00,Acu-Link.com,2013-05-22 20:05:00,
2013-05-22 16:20:00,89.6,67.9,29.70,SW,225,4.0,-999.0,49,-99.99,,,0.00,Acu-Link.com,2013-05-22 20:20:00,
2013-05-22 16:36:00,91.4,68.9,29.69,South,180,4.0,-999.0,48,-99.99,,,0.00,Acu-Link.com,2013-05-22 20:36:00,
2013-05-22 16:51:00,87.8,67.4,29.68,SSW,202,5.1,-999.0,51,-99.99,,,0.00,Acu-Link.com,2013-05-22 20:51:00,
2013-05-22 17:06:00,89.6,67.9,29.68,NNE,22,2.0,-999.0,49,-99.99,,,0.00,Acu-Link.com,2013-05-22 21:06:00,
2013-05-22 17:21:00,87.8,68.5,29.68,South,180,5.6,-999.0,53,-99.99,,,0.00,Acu-Link.com,2013-05-22 21:21:00,
2013-05-22 17:37:00,86.0,67.9,29.67,SSE,157,2.0,-999.0,55,-99.99,,,0.00,Acu-Link.com,2013-05-22 21:37:00,
2013-05-22 17:52:00,82.4,65.6,29.68,ESE,112,4.0,-999.0,57,-99.99,,,0.00,Acu-Link.com,2013-05-22 21:52:00,
2013-05-22 18:07:00,82.4,65.6,29.68,WNW,292,4.0,-999.0,57,-99.99,,,0.00,Acu-Link.com,2013-05-22 22:07:00,
2013-05-22 18:22:00,84.2,67.8,29.68,East,90,3.6,-999.0,58,-99.99,,,0.00,Acu-Link.com,2013-05-22 22:22:00,
2013-05-22 18:38:00,82.4,65.6,29.67,ESE,112,4.7,-999.0,57,-99.99,,,0.00,Acu-Link.com,2013-05-22 22:38:00,
2013-05-22 18:53:00,82.4,67.1,29.67,SW,225,1.1,-999.0,60,-99.99,,,0.00,Acu-Link.com,2013-05-22 22:53:00,
2013-05-22 19:08:00,80.6,65.4,29.68,NNW,337,2.0,-999.0,60,-99.99,,,0.00,Acu-Link.com,2013-05-22 23:08:00,
2013-05-22 19:23:00,80.6,66.4,29.68,SE,135,2.7,-999.0,62,-99.99,,,0.00,Acu-Link.com,2013-05-22 23:23:00,
2013-05-22 19:38:00,78.8,65.1,29.69,SSE,157,1.6,-999.0,63,-99.99,,,0.00,Acu-Link.com,2013-05-22 23:38:00,
2013-05-22 19:53:00,78.8,66.0,29.69,North,0,0.0,-999.0,65,-99.99,,,0.00,Acu-Link.com,2013-05-22 23:53:00,
2013-05-22 20:09:00,78.8,66.5,29.70,NW,315,1.6,-999.0,66,-99.99,,,0.00,Acu-Link.com,2013-05-23 00:09:00,
2013-05-22 20:24:00,77.0,66.0,29.73,SSW,202,2.7,-999.0,69,-99.99,,,0.00,Acu-Link.com,2013-05-23 00:24:00,
2013-05-22 20:39:00,73.4,63.0,29.74,NE,45,3.6,-999.0,70,-99.99,,,0.00,Acu-Link.com,2013-05-23 00:39:00,
2013-05-22 20:55:00,71.6,61.3,29.74,West,270,0.0,-999.0,70,-99.99,,,0.00,Acu-Link.com,2013-05-23 00:55:00,
2013-05-22 21:10:00,71.6,62.9,29.74,SSW,202,0.0,-999.0,74,-99.99,,,0.00,Acu-Link.com,2013-05-23 01:10:00,
2013-05-22 21:25:00,69.8,62.3,29.75,ESE,112,0.0,-999.0,77,-99.99,,,0.00,Acu-Link.com,2013-05-23 01:25:00,
2013-05-22 21:40:00,69.8,63.3,29.75,NE,45,1.1,-999.0,80,-99.99,,,0.00,Acu-Link.com,2013-05-23 01:40:00,
2013-05-22 21:55:00,68.0,63.0,29.75,East,90,0.0,-999.0,84,-99.99,,,0.00,Acu-Link.com,2013-05-23 01:55:00,
2013-05-22 22:11:00,68.0,63.0,29.75,NNE,22,1.6,-999.0,84,-99.99,,,0.00,Acu-Link.com,2013-05-23 02:11:00,
2013-05-22 22:26:00,68.0,63.3,29.75,NNE,22,0.0,-999.0,85,-99.99,,,0.00,Acu-Link.com,2013-05-23 02:26:00,
2013-05-22 22:41:00,66.2,61.9,29.74,NNE,22,2.0,-999.0,86,-99.99,,,0.00,Acu-Link.com,2013-05-23 02:41:00,
2013-05-22 22:56:00,66.2,61.9,29.74,NE,45,0.0,-999.0,86,-99.99,,,0.00,Acu-Link.com,2013-05-23 02:56:00,
2013-05-22 23:12:00,64.4,60.4,29.74,NNW,337,1.1,-999.0,87,-99.99,,,0.00,Acu-Link.com,2013-05-23 03:12:00,
2013-05-22 23:27:00,64.4,60.8,29.75,North,0,1.6,-999.0,88,-99.99,,,0.00,Acu-Link.com,2013-05-23 03:27:00,
2013-05-22 23:42:00,64.4,61.1,29.75,ESE,112,1.6,-999.0,89,-99.99,,,0.00,Acu-Link.com,2013-05-23 03:42:00,
2013-05-22 23:58:00,64.4,61.1,29.75,North,0,1.6,-999.0,89,-99.99,,,0.00,Acu-Link.com,2013-05-23 03:58:00,